Christina O — C6FN7 — position and weather

sailwx.info

Track history (hours):
 
Tides and Currents Weather Stations Pressure Air Temp Water Temp Dewpoint Dewpoint Depression Visibility Wind Speed Wind Dir Waves Ship Positions

Christina O

Operator: V Ships Leisure SAM

Last reported at 2019-Nov-18 23:24 UTC. Time now 2019-Nov-20 09:23 UTC.
Position N 18°51' W 065°35'.

Length 186 m; draft 6.1 m.

Type: Passenger vessel. MMSI: 308322000.

Date/timePositionNaut miles runAvg speedWind from/ knotsBaromVisibWave heightAir tempDewpointWater temp
2019-Nov-18 23:24N 18°51' W 065°35'1516.6
2019-Nov-18 22:30N 18°48' W 065°20'816.7
2019-Nov-18 22:01N 18°46' W 065°11'816.7
2019-Nov-18 21:31N 18°44' W 065°03'1616.5
2019-Nov-18 20:31N 18°39' W 064°46'816.6
2019-Nov-18 20:01N 18°35' W 064°38'74 5.1
2019-Nov-18 05:25N 18°03' W 063°27'511.2
2019-Nov-18 04:59N 18°02' W 063°22'1110.8
2019-Nov-18 04:00N 17°59' W 063°12'9 8.3
2019-Nov-18 02:57N 18°01' W 063°03'0 0.0
2019-Nov-18 01:56N 18°01' W 063°03'0 0.0
2019-Nov-18 00:56N 18°01' W 063°03'0 0.0
2019-Nov-17 23:30N 18°01' W 063°03'234 5.3
2019-Nov-16 03:15N 14°36' W 061°06'2 7.1
2019-Nov-16 02:59N 14°36' W 061°04'0 0.1
2019-Nov-16 02:27N 14°36' W 061°04'0 0.0
2019-Nov-15 22:29N 14°36' W 061°04'0 0.0
2019-Nov-15 19:59N 14°36' W 061°04'0 0.0
2019-Nov-15 18:59N 14°36' W 061°04'0 0.0
2019-Nov-15 17:59N 14°36' W 061°04'0 0.0
2019-Nov-15 15:28N 14°36' W 061°04'0 0.0
2019-Nov-15 13:29N 14°36' W 061°04'0 0.0
2019-Nov-15 11:56N 14°36' W 061°04'  
2019-Nov-12 23:29N 18°11' W 064°47'12 7.8
2019-Nov-12 22:00N 18°20' W 064°56'0 0.0
2019-Nov-12 17:43N 18°20' W 064°55'0 0.0
2019-Nov-12 15:19N 18°20' W 064°55'0 0.0
2019-Nov-12 14:49N 18°20' W 064°55'0 0.0
2019-Nov-12 11:49N 18°20' W 064°55'0 0.0
2019-Nov-12 11:25N 18°20' W 064°55'6 4.2
2019-Nov-12 10:00N 18°16' W 065°00'9 8.6
2019-Nov-12 09:00N 18°17' W 065°09'13 8.7
2019-Nov-12 07:30N 18°26' W 065°20'14 9.3
2019-Nov-12 06:00N 18°30' W 065°34'23 9.3
2019-Nov-12 03:30N 18°32' W 065°58'9 9.0
2019-Nov-12 02:30N 18°31' W 066°08'3 3.2
2019-Nov-12 01:28N 18°28' W 066°07'0 0.0
2019-Nov-11 23:58N 18°28' W 066°07'0 0.0
2019-Nov-11 21:30N 18°28' W 066°07'0 0.0
2019-Nov-11 20:58N 18°28' W 066°07'0 0.0
2019-Nov-11 18:30N 18°28' W 066°07'0 0.0
2019-Nov-11 17:30N 18°28' W 066°07'0 0.0
2019-Nov-11 16:52N 18°28' W 066°07'0 0.0
2019-Nov-11 16:30N 18°28' W 066°07'0 0.0
2019-Nov-11 15:00N 18°28' W 066°07'0 0.0
2019-Nov-11 12:58N 18°28' W 066°07'0 0.0
2019-Nov-11 12:00N 18°28' W 066°07'8 5.1
2019-Nov-11 10:30N 18°33' W 066°00'1912.9
2019-Nov-11 09:00N 18°30' W 065°40'3310.9
2019-Nov-11 06:00N 18°16' W 065°09'612.2
2019-Nov-11 05:31N 18°13' W 065°04'  
Track history (hours):
 
Tides and Currents Weather Stations Pressure Air Temp Water Temp Dewpoint Dewpoint Depression Visibility Wind Speed Wind Dir Waves Ship Positions

Christina O

Operator: V Ships Leisure SAM

Last reported at 2019-Nov-18 23:24 UTC. Time now 2019-Nov-20 09:23 UTC.
Position N 18°51' W 065°35'.

Length 186 m; draft 6.1 m.

Type: Passenger vessel. MMSI: 308322000.

Date/timePositionNaut miles runAvg speedWind from/ knotsBaromVisibWave heightAir tempDewpointWater temp
2019-Nov-18 23:24N 18°51' W 065°35'1516.6
2019-Nov-18 22:30N 18°48' W 065°20'816.7
2019-Nov-18 22:01N 18°46' W 065°11'816.7
2019-Nov-18 21:31N 18°44' W 065°03'1616.5
2019-Nov-18 20:31N 18°39' W 064°46'816.6
2019-Nov-18 20:01N 18°35' W 064°38'74 5.1
2019-Nov-18 05:25N 18°03' W 063°27'511.2
2019-Nov-18 04:59N 18°02' W 063°22'1110.8
2019-Nov-18 04:00N 17°59' W 063°12'9 8.3
2019-Nov-18 02:57N 18°01' W 063°03'0 0.0
2019-Nov-18 01:56N 18°01' W 063°03'0 0.0
2019-Nov-18 00:56N 18°01' W 063°03'0 0.0
2019-Nov-17 23:30N 18°01' W 063°03'234 5.3
2019-Nov-16 03:15N 14°36' W 061°06'2 7.1
2019-Nov-16 02:59N 14°36' W 061°04'0 0.1
2019-Nov-16 02:27N 14°36' W 061°04'0 0.0
2019-Nov-15 22:29N 14°36' W 061°04'0 0.0
2019-Nov-15 19:59N 14°36' W 061°04'0 0.0
2019-Nov-15 18:59N 14°36' W 061°04'0 0.0
2019-Nov-15 17:59N 14°36' W 061°04'0 0.0
2019-Nov-15 15:28N 14°36' W 061°04'0 0.0
2019-Nov-15 13:29N 14°36' W 061°04'0 0.0
2019-Nov-15 11:56N 14°36' W 061°04'  
2019-Nov-12 23:29N 18°11' W 064°47'12 7.8
2019-Nov-12 22:00N 18°20' W 064°56'0 0.0
2019-Nov-12 17:43N 18°20' W 064°55'0 0.0
2019-Nov-12 15:19N 18°20' W 064°55'0 0.0
2019-Nov-12 14:49N 18°20' W 064°55'0 0.0
2019-Nov-12 11:49N 18°20' W 064°55'0 0.0
2019-Nov-12 11:25N 18°20' W 064°55'6 4.2
2019-Nov-12 10:00N 18°16' W 065°00'9 8.6
2019-Nov-12 09:00N 18°17' W 065°09'13 8.7
2019-Nov-12 07:30N 18°26' W 065°20'14 9.3
2019-Nov-12 06:00N 18°30' W 065°34'23 9.3
2019-Nov-12 03:30N 18°32' W 065°58'9 9.0
2019-Nov-12 02:30N 18°31' W 066°08'3 3.2
2019-Nov-12 01:28N 18°28' W 066°07'0 0.0
2019-Nov-11 23:58N 18°28' W 066°07'0 0.0
2019-Nov-11 21:30N 18°28' W 066°07'0 0.0
2019-Nov-11 20:58N 18°28' W 066°07'0 0.0
2019-Nov-11 18:30N 18°28' W 066°07'0 0.0
2019-Nov-11 17:30N 18°28' W 066°07'0 0.0
2019-Nov-11 16:52N 18°28' W 066°07'0 0.0
2019-Nov-11 16:30N 18°28' W 066°07'0 0.0
2019-Nov-11 15:00N 18°28' W 066°07'0 0.0
2019-Nov-11 12:58N 18°28' W 066°07'0 0.0
2019-Nov-11 12:00N 18°28' W 066°07'8 5.1
2019-Nov-11 10:30N 18°33' W 066°00'1912.9
2019-Nov-11 09:00N 18°30' W 065°40'3310.9
2019-Nov-11 06:00N 18°16' W 065°09'612.2
2019-Nov-11 05:31N 18°13' W 065°04'  

Dump ship's entire track history